Time;durP1;ratioP1;P1;durP2;ratioP2;P2;SDS_P1;SDS_P2;PMS_P1;PMS_P2;Temp;Humidity;BMP_temperature;BMP_pressure;BME280_temperature;BME280_humidity;BME280_pressure;Samples;Min_cycle;Max_cycle;Signal;HPM_P1;HPM_P2
2022/09/05 00:01:31;;;;;;;;;2.00;2.00;;;;;;;;5013131;28;45382;-65
2022/09/05 00:03:57;;;;;;;;;4.33;4.00;;;;;;;;5037399;28;45269;-65
2022/09/05 00:06:24;;;;;;;;;2.00;2.00;;;;;;;;5042816;28;45242;-65
2022/09/05 00:09:00;;;;;;;;;3.67;3.67;;;;;;;;5036738;28;46347;-66
2022/09/05 00:11:34;;;;;;;;;3.00;3.00;;;;;;;;5042013;28;45468;-66
2022/09/05 00:14:02;;;;;;;;;3.33;3.33;;;;;;;;5036309;28;45552;-66
2022/09/05 00:16:44;;;;;;;;;4.67;2.00;;;;;;;;5042840;28;45573;-66
2022/09/05 00:19:35;;;;;;;;;3.00;3.00;;;;;;;;5034229;28;47256;-66
2022/09/05 00:22:01;;;;;;;;;2.67;2.67;;;;;;;;5036895;28;45493;-66
2022/09/05 00:24:44;;;;;;;;;3.00;3.00;;;;;;;;5035088;28;45472;-66
2022/09/05 00:27:09;;;;;;;;;4.67;4.67;;;;;;;;5044826;28;45659;-68
2022/09/05 00:29:45;;;;;;;;;3.00;2.25;;;;;;;;5042741;28;46405;-65
2022/09/05 00:32:43;;;;;;;;;2.33;2.33;;;;;;;;5044653;28;45225;-65
2022/09/05 00:35:28;;;;;;;;;3.00;3.00;;;;;;;;5011730;28;45337;-65
2022/09/05 00:37:54;;;;;;;;;5.00;2.00;;;;;;;;5042855;28;45278;-65
2022/09/05 00:40:32;;;;;;;;;4.00;3.00;;;;;;;;5044371;28;45410;-65
2022/09/05 00:43:03;;;;;;;;;3.67;3.67;;;;;;;;5041331;28;45298;-65
2022/09/05 00:45:36;;;;;;;;;6.00;3.00;;;;;;;;5056732;28;45426;-65
2022/09/05 00:48:06;;;;;;;;;1.33;1.33;;;;;;;;5042591;28;45579;-65
2022/09/05 00:50:42;;;;;;;;;2.00;2.00;;;;;;;;5045408;28;46659;-65
2022/09/05 00:53:19;;;;;;;;;1.67;1.67;;;;;;;;5043081;28;45385;-65
2022/09/05 00:56:02;;;;;;;;;2.00;2.00;;;;;;;;5045232;28;45238;-65
2022/09/05 00:58:30;;;;;;;;;3.00;3.00;;;;;;;;5043672;28;45522;-65
2022/09/05 01:00:57;;;;;;;;;2.00;2.00;;;;;;;;5044555;28;45296;-65
2022/09/05 01:03:29;;;;;;;;;4.00;3.00;;;;;;;;5042469;28;45440;-65
2022/09/05 01:06:01;;;;;;;;;4.67;3.00;;;;;;;;5043707;28;45412;-65
2022/09/05 01:08:36;;;;;;;;;3.00;3.00;;;;;;;;5041236;28;45242;-66
2022/09/05 01:11:20;;;;;;;;;3.00;3.00;;;;;;;;5044634;28;46472;-66
2022/09/05 01:13:48;;;;;;;;;2.00;2.00;;;;;;;;5034472;28;45270;-66
2022/09/05 01:16:20;;;;;;;;;2.33;2.33;;;;;;;;5045276;28;45455;-66
2022/09/05 01:18:54;;;;;;;;;2.00;2.00;;;;;;;;5041861;28;45430;-64
2022/09/05 01:21:36;;;;;;;;;1.00;1.00;;;;;;;;5040236;28;45548;-64
2022/09/05 01:24:07;;;;;;;;;3.67;3.67;;;;;;;;5034500;28;45322;-65
2022/09/05 01:26:51;;;;;;;;;1.00;1.00;;;;;;;;5044914;28;45388;-65
2022/09/05 01:29:22;;;;;;;;;4.00;3.00;;;;;;;;5038031;28;45749;-65
2022/09/05 01:31:49;;;;;;;;;3.00;3.00;;;;;;;;5043631;28;45681;-65
2022/09/05 01:34:14;;;;;;;;;2.00;2.00;;;;;;;;5040809;28;45425;-66
2022/09/05 01:36:42;;;;;;;;;1.75;1.75;;;;;;;;5043874;28;45376;-65
2022/09/05 01:39:13;;;;;;;;;2.00;2.00;;;;;;;;5040206;28;45407;-65
2022/09/05 01:41:50;;;;;;;;;2.00;2.00;;;;;;;;5044248;28;45364;-65
2022/09/05 01:44:15;;;;;;;;;3.00;3.00;;;;;;;;5038948;28;45351;-66
2022/09/05 01:46:59;;;;;;;;;8.00;4.00;;;;;;;;5040604;28;45598;-66
2022/09/05 01:49:28;;;;;;;;;3.00;3.00;;;;;;;;5058052;28;45521;-66
2022/09/05 01:52:17;;;;;;;;;2.33;2.33;;;;;;;;5044425;28;45285;-66
2022/09/05 01:54:51;;;;;;;;;4.67;2.00;;;;;;;;5058174;28;45370;-66
2022/09/05 01:57:35;;;;;;;;;3.67;3.67;;;;;;;;5043631;28;45254;-66
2022/09/05 02:00:06;;;;;;;;;2.33;2.33;;;;;;;;5044520;28;45226;-66
2022/09/05 02:02:43;;;;;;;;;2.00;2.00;;;;;;;;5042423;28;45496;-66
2022/09/05 02:05:17;;;;;;;;;4.00;4.00;;;;;;;;5031676;28;45262;-66
2022/09/05 02:08:03;;;;;;;;;3.67;3.67;;;;;;;;5042510;28;45639;-66
2022/09/05 02:10:36;;;;;;;;;6.00;3.33;;;;;;;;5002650;28;45393;-65
2022/09/05 02:13:13;;;;;;;;;5.00;3.67;;;;;;;;5039302;28;46251;-66
2022/09/05 02:15:43;;;;;;;;;2.00;2.00;;;;;;;;5037994;28;45336;-66
2022/09/05 02:18:12;;;;;;;;;3.00;3.00;;;;;;;;5041023;28;45482;-66
2022/09/05 02:20:40;;;;;;;;;3.33;3.33;;;;;;;;5054779;28;45524;-65
2022/09/05 02:23:09;;;;;;;;;3.00;3.00;;;;;;;;5038412;28;45554;-65
2022/09/05 02:25:40;;;;;;;;;2.00;2.00;;;;;;;;5043144;28;45401;-65
2022/09/05 02:28:11;;;;;;;;;2.67;2.33;;;;;;;;5041324;28;45363;-66
2022/09/05 02:30:41;;;;;;;;;5.33;4.00;;;;;;;;5041694;28;46794;-65
2022/09/05 02:33:20;;;;;;;;;4.33;3.00;;;;;;;;5038065;28;46089;-65
2022/09/05 02:35:59;;;;;;;;;3.00;3.00;;;;;;;;5043745;28;45292;-66
2022/09/05 02:38:42;;;;;;;;;4.00;4.00;;;;;;;;5037408;28;45474;-65
2022/09/05 02:41:26;;;;;;;;;2.00;2.00;;;;;;;;5054048;28;45259;-65
2022/09/05 02:43:57;;;;;;;;;5.00;5.00;;;;;;;;5036986;28;45437;-65
2022/09/05 02:46:34;;;;;;;;;7.00;4.00;;;;;;;;5042437;28;45351;-65
2022/09/05 02:49:03;;;;;;;;;3.67;3.67;;;;;;;;5038315;28;45406;-65
2022/09/05 02:51:28;;;;;;;;;3.33;3.33;;;;;;;;5043925;28;45259;-65
2022/09/05 02:53:57;;;;;;;;;4.33;4.00;;;;;;;;5040170;28;46231;-65
2022/09/05 02:56:28;;;;;;;;;5.67;4.00;;;;;;;;5040641;28;45297;-66
2022/09/05 02:59:00;;;;;;;;;4.00;4.00;;;;;;;;5041315;28;45289;-65
2022/09/05 03:01:39;;;;;;;;;3.00;2.00;;;;;;;;5043605;28;45337;-65
2022/09/05 03:04:13;;;;;;;;;6.67;5.33;;;;;;;;5034264;28;45536;-65
2022/09/05 03:06:41;;;;;;;;;3.67;3.67;;;;;;;;5041310;28;45743;-65
2022/09/05 03:09:21;;;;;;;;;4.00;3.00;;;;;;;;5033885;28;45533;-65
2022/09/05 03:11:53;;;;;;;;;3.67;3.67;;;;;;;;5032066;28;45453;-65
2022/09/05 03:14:18;;;;;;;;;4.00;4.00;;;;;;;;5034188;28;45444;-66
2022/09/05 03:17:02;;;;;;;;;3.67;3.67;;;;;;;;5043292;28;45329;-65
2022/09/05 03:19:46;;;;;;;;;3.33;3.33;;;;;;;;5036556;28;45312;-65
2022/09/05 03:22:23;;;;;;;;;4.00;3.00;;;;;;;;5043061;28;45206;-66
2022/09/05 03:25:07;;;;;;;;;5.00;4.00;;;;;;;;5039962;28;46398;-66
2022/09/05 03:28:02;;;;;;;;;5.33;4.00;;;;;;;;5034889;28;45439;-66
2022/09/05 03:30:37;;;;;;;;;2.33;2.33;;;;;;;;5040046;28;45474;-66
2022/09/05 03:33:20;;;;;;;;;4.33;3.33;;;;;;;;5038549;28;45408;-66
2022/09/05 03:35:57;;;;;;;;;3.33;3.33;;;;;;;;5041844;28;46509;-66
2022/09/05 03:38:32;;;;;;;;;5.00;5.00;;;;;;;;5036958;28;45341;-64
2022/09/05 03:41:16;;;;;;;;;5.33;4.00;;;;;;;;5042559;28;45440;-64
2022/09/05 03:44:04;;;;;;;;;4.00;4.00;;;;;;;;5037178;28;45391;-64
2022/09/05 03:46:41;;;;;;;;;4.00;4.00;;;;;;;;5028621;28;46526;-64
2022/09/05 03:49:25;;;;;;;;;4.00;4.00;;;;;;;;5053069;28;45446;-64
2022/09/05 03:52:10;;;;;;;;;3.00;3.00;;;;;;;;5039726;28;45505;-65
2022/09/05 03:54:35;;;;;;;;;24.75;22.50;;;;;;;;5037662;28;46051;-65
2022/09/05 03:57:19;;;;;;;;;8.00;8.00;;;;;;;;5042414;28;45571;-64
2022/09/05 04:00:05;;;;;;;;;9.00;7.00;;;;;;;;5040934;28;45299;-65
2022/09/05 04:02:32;;;;;;;;;6.00;4.67;;;;;;;;5044023;28;45515;-65
2022/09/05 04:05:00;;;;;;;;;5.67;5.67;;;;;;;;5041551;28;45429;-65
2022/09/05 04:07:29;;;;;;;;;5.00;4.00;;;;;;;;5037045;28;45366;-65
2022/09/05 04:10:00;;;;;;;;;5.33;5.00;;;;;;;;5052429;28;46159;-65
2022/09/05 04:12:25;;;;;;;;;5.67;5.00;;;;;;;;5044369;28;45261;-65
2022/09/05 04:15:09;;;;;;;;;5.50;5.50;;;;;;;;5039676;28;45397;-65
2022/09/05 04:17:36;;;;;;;;;7.00;6.00;;;;;;;;5043449;28;46291;-65
2022/09/05 04:20:10;;;;;;;;;8.67;7.00;;;;;;;;5043400;28;45378;-64
2022/09/05 04:22:39;;;;;;;;;5.33;5.33;;;;;;;;5042280;28;45276;-65
2022/09/05 04:25:22;;;;;;;;;17.25;15.50;;;;;;;;5043955;28;45357;-65
2022/09/05 04:27:52;;;;;;;;;7.67;7.67;;;;;;;;5043096;28;45571;-65
2022/09/05 04:30:39;;;;;;;;;8.00;8.00;;;;;;;;5043376;28;45233;-65
2022/09/05 04:33:23;;;;;;;;;7.00;6.00;;;;;;;;5040728;28;45412;-64
2022/09/05 04:35:51;;;;;;;;;7.67;7.33;;;;;;;;5045661;28;45251;-65
2022/09/05 04:38:18;;;;;;;;;8.00;8.00;;;;;;;;5038648;28;45488;-65
2022/09/05 04:40:46;;;;;;;;;7.00;6.00;;;;;;;;5043089;28;45554;-65
2022/09/05 04:43:14;;;;;;;;;11.33;6.00;;;;;;;;5042896;28;45362;-65
2022/09/05 04:46:05;;;;;;;;;12.33;9.67;;;;;;;;5042009;28;45341;-65
2022/09/05 04:48:38;;;;;;;;;6.00;6.00;;;;;;;;5039292;28;45564;-65
2022/09/05 04:51:23;;;;;;;;;7.67;7.00;;;;;;;;5044985;28;45353;-65
2022/09/05 04:53:54;;;;;;;;;9.00;9.00;;;;;;;;5039901;28;45661;-65
2022/09/05 04:56:21;;;;;;;;;8.00;8.00;;;;;;;;5045014;28;45559;-65
2022/09/05 04:58:50;;;;;;;;;6.67;6.67;;;;;;;;5058333;28;48013;-65
2022/09/05 05:01:23;;;;;;;;;9.00;7.67;;;;;;;;5044846;28;45416;-67
2022/09/05 05:03:48;;;;;;;;;9.00;7.00;;;;;;;;5038339;28;45610;-65
2022/09/05 05:06:20;;;;;;;;;7.67;6.00;;;;;;;;5041539;28;45557;-65
2022/09/05 05:08:49;;;;;;;;;6.00;6.00;;;;;;;;5042539;28;45515;-65
2022/09/05 05:11:18;;;;;;;;;7.33;7.33;;;;;;;;5042881;28;45400;-65
2022/09/05 05:13:56;;;;;;;;;7.00;5.00;;;;;;;;5041598;28;45417;-66
2022/09/05 05:16:27;;;;;;;;;5.33;5.33;;;;;;;;5039805;28;45353;-65
2022/09/05 05:18:59;;;;;;;;;6.33;5.00;;;;;;;;5040693;28;45545;-65
2022/09/05 05:21:26;;;;;;;;;6.33;5.33;;;;;;;;5042451;28;45277;-65
2022/09/05 05:24:11;;;;;;;;;10.33;7.33;;;;;;;;5039794;28;45345;-66
2022/09/05 05:27:12;;;;;;;;;9.33;7.67;;;;;;;;5042242;28;45624;-66
2022/09/05 05:29:43;;;;;;;;;9.00;7.00;;;;;;;;4998671;28;46151;-66
2022/09/05 05:32:13;;;;;;;;;6.33;6.00;;;;;;;;5028890;28;45199;-66
2022/09/05 05:34:45;;;;;;;;;10.33;8.67;;;;;;;;5040279;28;45417;-66
2022/09/05 05:37:12;;;;;;;;;11.33;11.33;;;;;;;;5043573;28;45549;-66
2022/09/05 05:39:41;;;;;;;;;7.00;7.00;;;;;;;;5054761;28;48732;-65
2022/09/05 05:42:13;;;;;;;;;8.33;7.00;;;;;;;;5042925;28;45298;-66
2022/09/05 05:44:38;;;;;;;;;8.33;7.00;;;;;;;;5037216;28;45519;-66
2022/09/05 05:47:23;;;;;;;;;13.67;9.00;;;;;;;;5042208;28;45353;-66
2022/09/05 05:49:56;;;;;;;;;11.00;8.00;;;;;;;;5037747;28;45325;-66
2022/09/05 05:52:41;;;;;;;;;12.00;9.67;;;;;;;;5042458;28;45134;-66
2022/09/05 05:55:16;;;;;;;;;9.33;8.33;;;;;;;;5040450;28;45361;-66
2022/09/05 05:58:01;;;;;;;;;13.00;13.00;;;;;;;;5041209;28;45666;-67
2022/09/05 06:00:41;;;;;;;;;11.33;9.33;;;;;;;;5008751;28;45523;-67
2022/09/05 06:03:24;;;;;;;;;16.00;10.00;;;;;;;;5040257;28;45380;-67
2022/09/05 06:06:06;;;;;;;;;12.00;11.33;;;;;;;;5035788;28;45463;-67
2022/09/05 06:08:34;;;;;;;;;14.00;12.00;;;;;;;;5039279;28;45416;-67
2022/09/05 06:11:19;;;;;;;;;11.00;10.00;;;;;;;;5042156;28;46674;-67
2022/09/05 06:14:00;;;;;;;;;10.33;10.33;;;;;;;;5015436;28;45468;-66
2022/09/05 06:16:43;;;;;;;;;11.00;10.67;;;;;;;;5043034;28;45395;-67
2022/09/05 06:19:28;;;;;;;;;13.33;11.00;;;;;;;;5051968;28;46621;-67
2022/09/05 06:21:53;;;;;;;;;13.00;11.33;;;;;;;;5041585;28;46179;-66
2022/09/05 06:24:27;;;;;;;;;15.33;13.67;;;;;;;;5038093;28;45207;-66
2022/09/05 06:27:11;;;;;;;;;13.33;12.00;;;;;;;;5041362;28;45689;-66
2022/09/05 06:29:45;;;;;;;;;15.33;12.33;;;;;;;;5039218;28;45760;-66
2022/09/05 06:32:20;;;;;;;;;15.33;12.00;;;;;;;;5040210;28;47474;-66
2022/09/05 06:34:52;;;;;;;;;9.33;9.33;;;;;;;;5054096;28;45488;-66
2022/09/05 06:37:24;;;;;;;;;18.67;14.67;;;;;;;;5041472;28;45460;-66
2022/09/05 06:39:59;;;;;;;;;8.67;8.67;;;;;;;;5038639;28;45193;-66
2022/09/05 06:42:44;;;;;;;;;12.67;10.33;;;;;;;;5031360;28;45433;-67
2022/09/05 06:45:10;;;;;;;;;12.00;11.00;;;;;;;;5028701;28;45312;-67
2022/09/05 06:47:36;;;;;;;;;11.67;10.00;;;;;;;;5039550;28;45315;-67
2022/09/05 06:50:04;;;;;;;;;10.33;9.33;;;;;;;;5039423;28;45180;-66
2022/09/05 06:52:45;;;;;;;;;7.33;7.33;;;;;;;;5040301;28;45767;-66
2022/09/05 06:55:33;;;;;;;;;7.33;6.00;;;;;;;;5038555;28;45362;-66
2022/09/05 06:57:58;;;;;;;;;8.33;7.33;;;;;;;;5039125;28;45302;-66
2022/09/05 07:00:28;;;;;;;;;6.00;6.00;;;;;;;;5041820;28;45430;-66
2022/09/05 07:02:59;;;;;;;;;6.67;6.00;;;;;;;;5039439;28;46081;-66
2022/09/05 07:05:35;;;;;;;;;8.33;6.00;;;;;;;;5040428;28;45390;-66
2022/09/05 07:08:10;;;;;;;;;8.67;5.33;;;;;;;;5036413;28;45434;-66
2022/09/05 07:10:37;;;;;;;;;7.00;6.00;;;;;;;;5041183;28;45391;-66
2022/09/05 07:13:05;;;;;;;;;7.00;6.00;;;;;;;;5038664;28;45340;-66
2022/09/05 07:15:37;;;;;;;;;6.33;5.00;;;;;;;;5039710;28;45318;-66
2022/09/05 07:18:02;;;;;;;;;7.67;7.67;;;;;;;;5037936;28;45381;-67
2022/09/05 07:20:33;;;;;;;;;7.00;7.00;;;;;;;;5035061;28;45304;-67
2022/09/05 07:22:58;;;;;;;;;6.67;6.67;;;;;;;;5038070;28;46341;-67
2022/09/05 07:25:28;;;;;;;;;5.67;5.67;;;;;;;;5037136;28;45518;-67
2022/09/05 07:28:03;;;;;;;;;8.33;8.00;;;;;;;;5040396;28;45389;-66
2022/09/05 07:30:29;;;;;;;;;6.33;5.33;;;;;;;;5039725;28;45367;-66
2022/09/05 07:32:55;;;;;;;;;8.33;6.67;;;;;;;;5036492;28;45643;-66
2022/09/05 07:35:24;;;;;;;;;7.33;6.00;;;;;;;;5039731;28;45216;-66
2022/09/05 07:38:01;;;;;;;;;7.33;5.00;;;;;;;;5039987;28;45471;-66
2022/09/05 07:40:28;;;;;;;;;4.00;4.00;;;;;;;;5039149;28;45531;-68
2022/09/05 07:42:59;;;;;;;;;4.67;4.67;;;;;;;;5048926;28;46956;-67
2022/09/05 07:45:26;;;;;;;;;8.00;7.00;;;;;;;;5041709;28;45404;-66
2022/09/05 07:48:02;;;;;;;;;7.67;6.67;;;;;;;;5038955;28;45502;-68
2022/09/05 07:50:28;;;;;;;;;5.33;5.33;;;;;;;;5040072;28;45472;-68
2022/09/05 07:52:55;;;;;;;;;6.00;6.00;;;;;;;;5052090;28;45560;-68
2022/09/05 07:55:36;;;;;;;;;6.00;6.00;;;;;;;;5029881;28;45389;-68
2022/09/05 07:58:06;;;;;;;;;11.67;10.67;;;;;;;;5036788;28;45418;-68
2022/09/05 08:00:32;;;;;;;;;4.33;4.33;;;;;;;;5038981;28;45696;-68
2022/09/05 08:02:59;;;;;;;;;11.33;11.00;;;;;;;;5038528;28;46129;-67
2022/09/05 08:05:26;;;;;;;;;10.00;10.00;;;;;;;;5040933;28;45336;-67
2022/09/05 08:07:54;;;;;;;;;7.00;7.00;;;;;;;;5039801;28;45372;-67
2022/09/05 08:10:20;;;;;;;;;10.33;9.67;;;;;;;;5040552;28;45266;-69
2022/09/05 08:12:48;;;;;;;;;7.33;7.33;;;;;;;;5036176;28;47125;-68
2022/09/05 08:15:17;;;;;;;;;6.33;6.33;;;;;;;;5037905;28;45390;-67
2022/09/05 08:17:43;;;;;;;;;6.33;5.00;;;;;;;;5039566;28;45413;-67
2022/09/05 08:20:14;;;;;;;;;5.00;5.00;;;;;;;;5036940;28;45358;-67
2022/09/05 08:22:49;;;;;;;;;5.33;5.00;;;;;;;;5039191;28;45503;-67
2022/09/05 08:25:17;;;;;;;;;5.67;5.67;;;;;;;;5035201;28;45486;-67
2022/09/05 08:27:45;;;;;;;;;6.00;6.00;;;;;;;;5038438;28;45484;-67
2022/09/05 08:30:11;;;;;;;;;4.67;4.67;;;;;;;;5040582;28;45274;-68
2022/09/05 08:32:48;;;;;;;;;6.00;6.00;;;;;;;;5054272;28;45502;-68
2022/09/05 08:35:23;;;;;;;;;7.00;6.00;;;;;;;;5036478;28;45455;-68
2022/09/05 08:37:50;;;;;;;;;6.33;6.33;;;;;;;;5039870;28;45426;-67
2022/09/05 08:40:27;;;;;;;;;6.33;6.33;;;;;;;;5038179;28;45495;-68
2022/09/05 08:43:17;;;;;;;;;5.00;5.00;;;;;;;;5038597;28;45413;-68
2022/09/05 08:45:45;;;;;;;;;7.00;5.67;;;;;;;;5033864;28;45266;-68
2022/09/05 08:48:40;;;;;;;;;7.67;6.00;;;;;;;;5042569;28;45530;-68
2022/09/05 08:51:12;;;;;;;;;4.00;4.00;;;;;;;;5037240;28;45394;-68
2022/09/05 08:53:37;;;;;;;;;4.67;4.67;;;;;;;;5055739;28;48008;-68
2022/09/05 08:56:14;;;;;;;;;5.67;4.00;;;;;;;;5038953;28;45337;-68
2022/09/05 08:58:58;;;;;;;;;6.00;4.00;;;;;;;;5043232;28;45475;-69
2022/09/05 09:01:33;;;;;;;;;5.33;5.33;;;;;;;;5044668;28;45663;-68
2022/09/05 09:04:17;;;;;;;;;6.00;6.00;;;;;;;;5041391;28;45639;-68
2022/09/05 09:06:48;;;;;;;;;3.00;3.00;;;;;;;;5043066;28;45329;-68
2022/09/05 09:09:42;;;;;;;;;4.00;4.00;;;;;;;;5042102;28;45278;-68
2022/09/05 09:12:07;;;;;;;;;5.67;4.00;;;;;;;;5005321;28;45345;-68
2022/09/05 09:14:36;;;;;;;;;5.33;4.67;;;;;;;;5038796;28;45520;-68
2022/09/05 09:17:02;;;;;;;;;6.00;5.33;;;;;;;;5044522;28;45350;-68
2022/09/05 09:19:27;;;;;;;;;6.00;6.00;;;;;;;;5033824;28;45355;-68
2022/09/05 09:21:52;;;;;;;;;9.33;6.67;;;;;;;;5043425;28;45222;-68
2022/09/05 09:24:27;;;;;;;;;3.00;3.00;;;;;;;;5041504;28;45259;-67
2022/09/05 09:26:58;;;;;;;;;4.00;4.00;;;;;;;;5043458;28;45403;-68
2022/09/05 09:29:24;;;;;;;;;4.00;4.00;;;;;;;;5041417;28;45435;-68
2022/09/05 09:32:03;;;;;;;;;5.67;5.00;;;;;;;;5043458;28;45301;-68
2022/09/05 09:34:28;;;;;;;;;4.00;4.00;;;;;;;;5038060;28;45663;-68
2022/09/05 09:36:56;;;;;;;;;5.00;5.00;;;;;;;;5043448;28;45479;-68
2022/09/05 09:39:40;;;;;;;;;6.00;4.00;;;;;;;;5039042;28;45450;-66
2022/09/05 09:42:05;;;;;;;;;4.67;4.67;;;;;;;;5042445;28;45412;-66
2022/09/05 09:44:40;;;;;;;;;2.67;2.67;;;;;;;;5038250;28;46510;-67
2022/09/05 09:47:11;;;;;;;;;6.00;4.33;;;;;;;;5043237;28;45475;-67
2022/09/05 09:49:46;;;;;;;;;6.00;5.00;;;;;;;;5038213;28;45583;-68
2022/09/05 09:52:24;;;;;;;;;5.00;5.00;;;;;;;;5024660;28;45215;-67
2022/09/05 09:55:08;;;;;;;;;5.00;5.00;;;;;;;;5040178;28;45428;-67
2022/09/05 09:57:52;;;;;;;;;4.67;4.67;;;;;;;;5040390;28;45369;-67
2022/09/05 10:00:20;;;;;;;;;4.33;4.33;;;;;;;;5040358;28;45440;-67
2022/09/05 10:03:04;;;;;;;;;4.33;4.33;;;;;;;;5040208;28;45476;-67
2022/09/05 10:05:47;;;;;;;;;3.00;3.00;;;;;;;;5042431;28;46798;-68
2022/09/05 10:08:19;;;;;;;;;5.00;4.00;;;;;;;;5040089;28;45326;-67
2022/09/05 10:10:44;;;;;;;;;5.33;5.33;;;;;;;;5042328;28;45436;-68
2022/09/05 10:13:20;;;;;;;;;5.50;4.00;;;;;;;;5039660;28;45641;-68
2022/09/05 10:16:04;;;;;;;;;5.00;5.00;;;;;;;;5043458;28;46308;-68
2022/09/05 10:18:37;;;;;;;;;3.00;3.00;;;;;;;;5036488;28;46085;-68
2022/09/05 10:21:15;;;;;;;;;4.00;4.00;;;;;;;;5054734;28;45548;-67
2022/09/05 10:23:55;;;;;;;;;6.67;6.67;;;;;;;;5031265;28;45508;-68
2022/09/05 10:26:20;;;;;;;;;3.00;3.00;;;;;;;;5031669;28;46224;-68
2022/09/05 10:29:01;;;;;;;;;5.00;5.00;;;;;;;;5039126;28;45559;-67
2022/09/05 10:31:45;;;;;;;;;2.00;1.00;;;;;;;;5052244;28;45352;-68
2022/09/05 10:34:17;;;;;;;;;1.00;1.00;;;;;;;;5037493;28;45393;-68
2022/09/05 10:36:48;;;;;;;;;2.00;2.00;;;;;;;;5043255;28;45341;-68
2022/09/05 10:39:18;;;;;;;;;2.33;2.33;;;;;;;;5037755;28;45630;-67
2022/09/05 10:41:49;;;;;;;;;4.00;4.00;;;;;;;;5043294;28;45319;-68
2022/09/05 10:44:18;;;;;;;;;4.33;4.00;;;;;;;;5038941;28;45414;-67
2022/09/05 10:46:46;;;;;;;;;5.00;5.00;;;;;;;;5043109;28;45276;-68
2022/09/05 10:49:13;;;;;;;;;3.00;3.00;;;;;;;;5041143;28;45489;-68
2022/09/05 10:51:44;;;;;;;;;2.00;2.00;;;;;;;;5043058;28;45549;-68
2022/09/05 10:54:10;;;;;;;;;3.00;2.00;;;;;;;;5040029;28;45328;-67
2022/09/05 10:56:44;;;;;;;;;3.67;2.67;;;;;;;;5042731;28;45621;-68
2022/09/05 10:59:47;;;;;;;;;1.67;1.67;;;;;;;;5041200;28;45656;-68
2022/09/05 11:02:21;;;;;;;;;5.33;4.00;;;;;;;;5033601;28;45455;-68
2022/09/05 11:04:49;;;;;;;;;2.67;2.67;;;;;;;;5041577;28;45505;-69
2022/09/05 11:07:20;;;;;;;;;3.00;3.00;;;;;;;;5043008;28;45548;-67
2022/09/05 11:10:19;;;;;;;;;2.00;2.00;;;;;;;;5039483;28;45355;-67
2022/09/05 11:13:01;;;;;;;;;2.00;2.00;;;;;;;;5007109;28;45376;-68
2022/09/05 11:15:32;;;;;;;;;0.67;0.67;;;;;;;;5043298;28;45436;-68
2022/09/05 11:18:05;;;;;;;;;4.00;4.00;;;;;;;;5039297;28;45437;-68
2022/09/05 11:20:30;;;;;;;;;3.00;3.00;;;;;;;;5040470;28;45309;-68
2022/09/05 11:22:59;;;;;;;;;3.00;3.00;;;;;;;;5039615;28;45409;-68
2022/09/05 11:25:26;;;;;;;;;1.00;1.00;;;;;;;;5038994;28;45468;-68
2022/09/05 11:27:53;;;;;;;;;2.00;2.00;;;;;;;;5039430;28;46410;-68
2022/09/05 11:30:26;;;;;;;;;1.33;1.33;;;;;;;;5041236;28;45460;-68
2022/09/05 11:32:58;;;;;;;;;2.67;2.67;;;;;;;;5037724;28;45270;-68
2022/09/05 11:35:24;;;;;;;;;2.00;2.00;;;;;;;;5042043;28;45357;-67
2022/09/05 11:37:59;;;;;;;;;3.00;2.00;;;;;;;;5039064;28;45584;-68
2022/09/05 11:40:24;;;;;;;;;2.33;2.33;;;;;;;;5039288;28;45389;-67
2022/09/05 11:43:02;;;;;;;;;4.33;4.33;;;;;;;;5040813;28;45634;-68
2022/09/05 11:45:33;;;;;;;;;3.00;3.00;;;;;;;;5041756;28;45973;-68
2022/09/05 11:48:30;;;;;;;;;5.67;5.67;;;;;;;;5038067;28;47024;-67
2022/09/05 11:50:56;;;;;;;;;2.00;2.00;;;;;;;;5012681;28;45944;-68
2022/09/05 11:53:30;;;;;;;;;5.67;3.00;;;;;;;;5038649;28;45405;-68
2022/09/05 11:56:05;;;;;;;;;2.33;1.67;;;;;;;;5033774;28;45461;-69
2022/09/05 11:58:30;;;;;;;;;3.00;2.67;;;;;;;;5039868;28;45551;-68
2022/09/05 12:01:04;;;;;;;;;2.00;2.00;;;;;;;;5042178;28;45377;-68
2022/09/05 12:03:51;;;;;;;;;2.67;1.00;;;;;;;;5039735;28;45395;-68
2022/09/05 12:06:39;;;;;;;;;2.00;2.00;;;;;;;;5039066;28;45414;-68
2022/09/05 12:09:10;;;;;;;;;0.67;0.67;;;;;;;;5036309;28;45661;-68
2022/09/05 12:11:35;;;;;;;;;2.00;2.00;;;;;;;;5042036;28;45392;-68
2022/09/05 12:14:19;;;;;;;;;3.00;1.67;;;;;;;;5035147;28;45328;-67
2022/09/05 12:17:03;;;;;;;;;2.00;2.00;;;;;;;;5047199;28;45617;-68
2022/09/05 12:19:31;;;;;;;;;1.67;1.67;;;;;;;;5034275;28;46481;-68
2022/09/05 12:22:15;;;;;;;;;3.00;2.00;;;;;;;;5044634;28;45320;-68
2022/09/05 12:24:55;;;;;;;;;7.75;6.75;;;;;;;;5040642;28;45419;-68
2022/09/05 12:27:22;;;;;;;;;4.50;4.50;;;;;;;;5045834;28;45296;-68
2022/09/05 12:29:53;;;;;;;;;4.00;4.00;;;;;;;;5043641;28;46531;-68
2022/09/05 12:32:19;;;;;;;;;1.67;1.67;;;;;;;;5045728;28;45478;-68
2022/09/05 12:34:55;;;;;;;;;3.33;2.67;;;;;;;;5039356;28;45297;-68
2022/09/05 12:37:21;;;;;;;;;3.33;3.33;;;;;;;;5045228;28;45526;-68
2022/09/05 12:39:51;;;;;;;;;3.33;3.33;;;;;;;;5036697;28;46861;-68
2022/09/05 12:42:39;;;;;;;;;1.00;1.00;;;;;;;;5043807;28;45350;-68
2022/09/05 12:45:10;;;;;;;;;3.00;2.67;;;;;;;;5041866;28;45274;-68
2022/09/05 12:47:49;;;;;;;;;2.67;2.67;;;;;;;;5043825;28;45498;-68
2022/09/05 12:50:16;;;;;;;;;3.33;3.00;;;;;;;;5044264;28;45614;-68
2022/09/05 12:52:43;;;;;;;;;3.33;3.33;;;;;;;;5041247;28;45310;-68
2022/09/05 12:55:08;;;;;;;;;3.67;3.00;;;;;;;;5036663;28;45325;-68
2022/09/05 12:57:34;;;;;;;;;4.33;3.33;;;;;;;;5043947;28;45301;-68
2022/09/05 13:00:08;;;;;;;;;3.00;2.00;;;;;;;;5040811;28;45417;-68
2022/09/05 13:02:35;;;;;;;;;3.00;2.67;;;;;;;;5043866;28;45337;-68
2022/09/05 13:05:02;;;;;;;;;3.67;3.67;;;;;;;;5038997;28;45422;-66
2022/09/05 13:07:41;;;;;;;;;1.67;1.67;;;;;;;;5044337;28;45479;-68
2022/09/05 13:10:21;;;;;;;;;4.75;4.75;;;;;;;;5038403;28;45625;-68
2022/09/05 13:12:49;;;;;;;;;5.75;4.75;;;;;;;;5042341;28;45432;-68
2022/09/05 13:15:20;;;;;;;;;4.33;4.33;;;;;;;;5040586;28;45473;-68
2022/09/05 13:17:47;;;;;;;;;3.67;3.67;;;;;;;;5043327;28;45401;-68
2022/09/05 13:20:18;;;;;;;;;6.67;3.67;;;;;;;;5042870;28;47237;-68
2022/09/05 13:22:47;;;;;;;;;5.67;4.00;;;;;;;;5038874;28;45503;-68
2022/09/05 13:25:15;;;;;;;;;5.00;5.00;;;;;;;;5043429;28;45270;-68
2022/09/05 13:27:45;;;;;;;;;4.00;4.00;;;;;;;;5042861;28;45256;-68
2022/09/05 13:30:11;;;;;;;;;4.75;3.00;;;;;;;;5042442;28;46511;-68
2022/09/05 13:32:39;;;;;;;;;3.00;3.00;;;;;;;;5041389;28;45534;-68
2022/09/05 13:35:11;;;;;;;;;3.00;3.00;;;;;;;;5043369;28;45164;-68
2022/09/05 13:37:45;;;;;;;;;4.00;3.33;;;;;;;;5043078;28;45321;-68
2022/09/05 13:40:15;;;;;;;;;3.00;3.00;;;;;;;;5058562;28;46871;-68
2022/09/05 13:42:43;;;;;;;;;4.00;4.00;;;;;;;;5042506;28;45356;-68
2022/09/05 13:45:14;;;;;;;;;5.33;4.33;;;;;;;;5041406;28;45234;-68
2022/09/05 13:47:42;;;;;;;;;3.00;3.00;;;;;;;;5043009;28;45302;-68
2022/09/05 13:50:12;;;;;;;;;6.00;5.00;;;;;;;;5040222;28;45525;-68
2022/09/05 13:52:42;;;;;;;;;2.67;1.67;;;;;;;;5041226;28;45448;-68
2022/09/05 13:55:08;;;;;;;;;2.33;2.33;;;;;;;;5043464;28;45443;-68
2022/09/05 13:57:54;;;;;;;;;2.67;2.67;;;;;;;;5041519;28;45403;-68
2022/09/05 14:00:26;;;;;;;;;12.00;10.50;;;;;;;;5038433;28;45468;-68
2022/09/05 14:03:01;;;;;;;;;3.00;3.00;;;;;;;;5042873;28;45314;-68
2022/09/05 14:05:38;;;;;;;;;3.33;3.33;;;;;;;;5034440;28;45282;-68
2022/09/05 14:08:21;;;;;;;;;2.67;2.00;;;;;;;;5040921;28;45544;-67
2022/09/05 14:10:58;;;;;;;;;7.00;5.75;;;;;;;;5036406;28;46915;-68
2022/09/05 14:13:25;;;;;;;;;3.75;3.75;;;;;;;;5040438;28;45289;-67
2022/09/05 14:15:53;;;;;;;;;7.50;7.25;;;;;;;;5042698;28;45288;-68
2022/09/05 14:18:28;;;;;;;;;6.00;6.00;;;;;;;;5039947;28;45413;-68
2022/09/05 14:21:16;;;;;;;;;3.67;3.67;;;;;;;;5040525;28;47164;-68
2022/09/05 14:23:43;;;;;;;;;5.00;4.33;;;;;;;;5036773;28;45398;-68
2022/09/05 14:26:14;;;;;;;;;5.00;4.67;;;;;;;;5038114;28;45380;-68
2022/09/05 14:28:43;;;;;;;;;4.67;3.33;;;;;;;;5034753;28;45363;-68
2022/09/05 14:31:11;;;;;;;;;4.33;4.33;;;;;;;;5041930;28;46402;-68
2022/09/05 14:33:36;;;;;;;;;5.25;4.50;;;;;;;;5038952;28;45472;-68
2022/09/05 14:36:05;;;;;;;;;6.25;4.50;;;;;;;;5041182;28;45458;-68
2022/09/05 14:38:39;;;;;;;;;6.50;6.50;;;;;;;;5038920;28;45301;-68
2022/09/05 14:41:20;;;;;;;;;5.00;5.00;;;;;;;;5038040;28;46293;-67
2022/09/05 14:43:47;;;;;;;;;4.00;4.00;;;;;;;;5037565;28;45313;-67
2022/09/05 14:46:38;;;;;;;;;4.33;4.33;;;;;;;;5040004;28;45473;-67
2022/09/05 14:49:04;;;;;;;;;4.00;4.00;;;;;;;;5039181;28;45488;-67
2022/09/05 14:51:36;;;;;;;;;4.00;3.33;;;;;;;;5040996;28;45964;-67
2022/09/05 14:54:10;;;;;;;;;4.33;4.33;;;;;;;;5039519;28;45839;-67
2022/09/05 14:56:42;;;;;;;;;6.00;6.00;;;;;;;;5042737;28;45420;-67
2022/09/05 14:59:13;;;;;;;;;4.75;4.75;;;;;;;;5039323;28;45407;-67
2022/09/05 15:01:56;;;;;;;;;9.00;5.75;;;;;;;;5042955;28;46192;-67
2022/09/05 15:04:23;;;;;;;;;6.50;6.50;;;;;;;;5037664;28;45390;-68
2022/09/05 15:07:18;;;;;;;;;5.33;5.33;;;;;;;;5054360;28;45515;-68
2022/09/05 15:09:44;;;;;;;;;5.00;5.00;;;;;;;;5022527;28;45525;-68
2022/09/05 15:12:17;;;;;;;;;3.67;3.67;;;;;;;;5054277;28;47267;-68
2022/09/05 15:14:51;;;;;;;;;3.00;3.00;;;;;;;;5048054;28;45417;-68
2022/09/05 15:17:22;;;;;;;;;4.00;3.25;;;;;;;;5042451;28;45416;-68
2022/09/05 15:19:53;;;;;;;;;4.25;4.25;;;;;;;;5035778;28;45795;-68